Time;durP1;ratioP1;P1;durP2;ratioP2;P2;SDS_P1;SDS_P2;PMS_P1;PMS_P2;Temp;Humidity;BMP_temperature;BMP_pressure;BME280_temperature;BME280_humidity;BME280_pressure;Samples;Min_cycle;Max_cycle;Signal;HPM_P1;HPM_P2
2021/10/02 05:57:38;;;;;;;7.45;5.03;;;11.80;89.10;;;;;;4955716;28;20062;-91
2021/10/02 06:00:07;;;;;;;7.10;4.78;;;12.00;88.50;;;;;;4940375;29;20481;-90
2021/10/02 06:02:33;;;;;;;9.35;5.82;;;12.10;87.70;;;;;;4940351;29;20066;-91
2021/10/02 06:04:59;;;;;;;6.47;5.45;;;12.20;87.10;;;;;;4940120;29;20058;-91
2021/10/02 06:07:25;;;;;;;6.78;5.05;;;12.40;86.30;;;;;;4940626;29;20023;-91
2021/10/02 06:09:51;;;;;;;8.25;5.03;;;12.50;85.40;;;;;;4941431;29;20030;-91
2021/10/02 06:12:20;;;;;;;8.32;5.15;;;12.70;84.40;;;;;;4942030;29;20039;-90
2021/10/02 06:14:45;;;;;;;7.93;4.95;;;12.80;83.80;;;;;;4959940;28;20019;-91
2021/10/02 06:17:11;;;;;;;8.32;5.50;;;13.00;83.40;;;;;;4941223;29;20026;-90
2021/10/02 06:19:37;;;;;;;6.22;4.43;;;13.10;82.70;;;;;;4940362;29;20374;-90
2021/10/02 06:22:04;;;;;;;6.05;4.30;;;13.20;82.00;;;;;;4940956;28;20113;-90
2021/10/02 06:24:30;;;;;;;7.03;4.03;;;13.40;81.20;;;;;;4941766;29;20023;-91
2021/10/02 06:26:56;;;;;;;8.32;4.50;;;13.50;80.70;;;;;;4943263;29;20055;-90
2021/10/02 06:29:26;;;;;;;8.85;4.97;;;13.60;80.30;;;;;;4944955;29;20117;-90
2021/10/02 06:31:52;;;;;;;10.07;4.93;;;13.70;79.80;;;;;;4949294;29;20035;-90
2021/10/02 06:34:18;;;;;;;8.15;5.70;;;13.80;79.40;;;;;;4940282;29;20030;-91
2021/10/02 06:36:43;;;;;;;8.23;5.40;;;13.90;79.60;;;;;;4939971;29;20031;-91
2021/10/02 06:39:10;;;;;;;6.30;4.63;;;14.00;80.40;;;;;;4942922;29;20043;-90
2021/10/02 06:41:38;;;;;;;6.18;5.00;;;14.00;80.80;;;;;;4942534;29;20517;-92
2021/10/02 06:44:11;;;;;;;7.75;4.95;;;14.10;81.00;;;;;;4944650;29;20028;-91
2021/10/02 06:46:37;;;;;;;10.00;6.03;;;14.10;81.20;;;;;;4953718;29;20023;-91
2021/10/02 06:49:08;;;;;;;11.18;6.15;;;14.10;81.60;;;;;;4949279;28;20073;-90
2021/10/02 06:51:33;;;;;;;8.43;5.65;;;14.10;81.90;;;;;;4944127;29;20027;-90
2021/10/02 06:54:02;;;;;;;7.43;5.05;;;14.00;82.00;;;;;;4943542;29;20030;-91
2021/10/02 06:56:33;;;;;;;6.35;5.05;;;14.00;82.80;;;;;;4942871;29;20047;-91
2021/10/02 06:59:00;;;;;;;8.15;5.20;;;13.90;82.60;;;;;;4951845;29;20090;-92
2021/10/02 07:01:25;;;;;;;7.10;5.32;;;14.00;82.70;;;;;;4961435;29;20051;-91
2021/10/02 07:03:55;;;;;;;8.32;5.57;;;14.00;82.80;;;;;;4963389;28;20042;-91
2021/10/02 07:06:26;;;;;;;8.80;4.95;;;14.00;82.70;;;;;;4964032;29;20031;-91
2021/10/02 07:08:57;;;;;;;7.50;5.45;;;14.00;83.60;;;;;;4960690;29;20051;-90
2021/10/02 07:11:22;;;;;;;8.57;5.90;;;14.10;84.50;;;;;;4960034;29;20085;-91
2021/10/02 07:13:48;;;;;;;10.25;7.57;;;14.10;85.10;;;;;;4957209;29;20046;-90
2021/10/02 07:16:14;;;;;;;10.50;7.65;;;14.10;85.40;;;;;;4950473;28;20034;-90
2021/10/02 07:18:50;;;;;;;;;;;;;;;;;;;;;
2021/10/02 07:21:19;;;;;;;9.65;7.45;;;14.10;86.10;;;;;;4960616;28;20027;-90
2021/10/02 07:24:15;;;;;;;;;;;;;;;;;;;;;
2021/10/02 07:26:43;;;;;;;9.20;7.50;;;14.00;86.60;;;;;;4959637;28;20027;-91
2021/10/02 07:29:10;;;;;;;10.77;6.93;;;14.00;86.50;;;;;;4942975;29;20069;-91
2021/10/02 07:31:56;;;;;;;9.52;6.28;;;14.10;86.40;;;;;;4942365;29;20118;-91
2021/10/02 07:34:25;;;;;;;8.90;6.28;;;14.10;86.30;;;;;;4942844;29;20074;-90
2021/10/02 07:36:57;;;;;;;9.75;5.75;;;14.10;85.90;;;;;;4943265;29;20501;-91
2021/10/02 07:39:23;;;;;;;9.02;6.22;;;14.10;85.80;;;;;;4945770;29;20481;-91
2021/10/02 07:41:50;;;;;;;6.93;5.20;;;14.20;85.60;;;;;;4942353;29;20039;-91
2021/10/02 07:44:28;;;;;;;8.23;5.90;;;14.30;85.40;;;;;;4942557;29;20051;-90
2021/10/02 07:47:06;;;;;;;;;;;;;;;;;;;;;
2021/10/02 07:49:42;;;;;;;10.60;6.88;;;14.40;84.50;;;;;;4960101;28;20033;-90
2021/10/02 07:52:08;;;;;;;7.50;6.13;;;14.40;83.80;;;;;;4941471;29;20069;-91
2021/10/02 07:54:41;;;;;;;8.32;6.03;;;14.40;83.60;;;;;;4941304;28;20043;-90
2021/10/02 07:57:27;;;;;;;9.57;5.82;;;14.40;83.30;;;;;;4941218;29;20082;-90
2021/10/02 08:00:07;;;;;;;;;;;;;;;;;;;;;
2021/10/02 08:02:33;;;;;;;9.75;6.32;;;14.50;81.30;;;;;;4958980;28;20033;-90
2021/10/02 08:05:08;;;;;;;8.00;4.88;;;14.50;80.00;;;;;;4943479;29;20031;-91
2021/10/02 08:07:48;;;;;;;7.45;5.03;;;14.50;79.40;;;;;;4943932;29;20046;-92
2021/10/02 08:10:27;;;;;;;5.32;4.13;;;14.60;78.80;;;;;;4944869;28;20024;-92
2021/10/02 08:13:03;;;;;;;8.05;4.88;;;14.60;77.80;;;;;;4942960;29;20038;-89
2021/10/02 08:15:32;;;;;;;8.30;4.28;;;14.70;76.50;;;;;;4942875;29;20038;-91
2021/10/02 08:18:07;;;;;;;5.55;3.92;;;14.60;75.50;;;;;;4943518;29;20110;-91
2021/10/02 08:20:34;;;;;;;6.40;4.53;;;14.70;76.40;;;;;;4942358;29;20030;-91
2021/10/02 08:23:09;;;;;;;5.18;4.18;;;14.70;75.30;;;;;;4941095;28;20031;-91
2021/10/02 08:25:38;;;;;;;5.90;4.15;;;14.70;75.40;;;;;;4943157;29;20050;-91
2021/10/02 08:28:15;;;;;;;5.35;3.90;;;14.70;75.20;;;;;;4941231;29;20027;-92
2021/10/02 08:30:45;;;;;;;6.68;4.32;;;14.70;75.10;;;;;;4942036;29;20057;-91
2021/10/02 08:33:17;;;;;;;8.50;5.25;;;14.70;74.80;;;;;;4941925;28;20106;-91
2021/10/02 08:35:46;;;;;;;5.85;4.40;;;14.70;74.50;;;;;;4941901;29;20446;-91
2021/10/02 08:38:32;;;;;;;5.68;4.43;;;14.60;74.80;;;;;;4951996;29;20129;-91
2021/10/02 08:41:03;;;;;;;4.88;4.07;;;14.60;75.10;;;;;;4955856;29;20027;-91
2021/10/02 08:43:33;;;;;;;5.97;4.10;;;14.60;75.50;;;;;;4960104;28;20033;-91
2021/10/02 08:46:08;;;;;;;7.07;5.40;;;14.60;75.80;;;;;;4962499;28;20611;-91
2021/10/02 08:48:38;;;;;;;6.40;4.95;;;14.70;75.00;;;;;;4961636;29;20024;-90
2021/10/02 08:51:07;;;;;;;5.10;4.45;;;14.70;74.40;;;;;;4958847;29;20027;-91
2021/10/02 08:53:36;;;;;;;7.03;4.38;;;14.70;73.60;;;;;;4956617;29;20055;-90
2021/10/02 08:56:12;;;;;;;5.85;4.72;;;14.60;72.40;;;;;;4948003;28;20153;-91
2021/10/02 08:58:38;;;;;;;5.40;3.97;;;14.60;70.80;;;;;;4943606;29;20019;-91
2021/10/02 09:01:07;;;;;;;4.63;3.80;;;14.60;71.00;;;;;;4942757;29;20130;-90
2021/10/02 09:03:33;;;;;;;6.65;3.83;;;14.60;71.20;;;;;;4944018;29;20070;-91
2021/10/02 09:05:58;;;;;;;5.63;3.92;;;14.60;71.00;;;;;;4942628;28;20035;-90
2021/10/02 09:08:30;;;;;;;4.68;3.78;;;14.60;71.60;;;;;;4942460;29;20031;-91
2021/10/02 09:11:04;;;;;;;5.05;3.63;;;14.60;71.00;;;;;;4941937;29;20026;-91
2021/10/02 09:13:32;;;;;;;5.97;3.65;;;14.70;70.70;;;;;;4941252;29;20033;-91
2021/10/02 09:15:57;;;;;;;4.00;3.42;;;14.80;68.80;;;;;;4941557;29;20030;-90
2021/10/02 09:18:32;;;;;;;5.30;3.50;;;14.80;68.50;;;;;;4940722;29;20019;-91
2021/10/02 09:21:05;;;;;;;4.15;3.03;;;14.80;68.10;;;;;;4940594;28;20391;-92
2021/10/02 09:23:33;;;;;;;;;;;14.80;67.80;;;;;;4941566;29;20068;-90
2021/10/02 09:25:59;;;;;;;5.55;3.72;;;14.90;66.40;;;;;;4942424;29;19910;-92
2021/10/02 09:28:41;;;;;;;3.25;2.53;;;14.90;65.90;;;;;;4942033;29;20074;-92
2021/10/02 09:31:09;;;;;;;3.17;2.40;;;14.90;66.50;;;;;;4943676;29;20033;-91
2021/10/02 09:34:19;;;;;;;5.50;2.97;;;15.00;66.70;;;;;;4941570;29;20525;-91
2021/10/02 09:36:46;;;;;;;3.88;3.15;;;15.00;64.30;;;;;;4941176;29;20583;-91
2021/10/02 09:39:21;;;;;;;4.03;3.40;;;15.00;65.00;;;;;;4941609;29;20034;-92
2021/10/02 09:41:50;;;;;;;6.53;3.60;;;15.00;65.00;;;;;;4941666;29;20034;-91
2021/10/02 09:44:33;;;;;;;5.32;2.72;;;15.00;63.70;;;;;;4943401;29;20462;-91
2021/10/02 09:53:21;;;;;;;3.13;2.50;;;15.00;62.10;;;;;;4976970;28;20030;-91
2021/10/02 09:56:08;;;;;;;3.58;2.90;;;15.00;60.40;;;;;;4958440;28;20649;-90
2021/10/02 09:58:49;;;;;;;4.13;3.08;;;15.00;59.90;;;;;;4958329;28;20035;-91
2021/10/02 10:01:55;;;;;;;;;;;;;;;;;;;;;
2021/10/02 10:04:28;;;;;;;2.97;2.70;;;15.00;59.90;;;;;;4961824;28;20134;-91
2021/10/02 10:07:12;;;;;;;2.65;2.33;;;15.00;59.60;;;;;;4941429;28;20024;-92
2021/10/02 10:09:41;;;;;;;3.08;2.22;;;15.10;59.40;;;;;;4941643;29;20057;-90
2021/10/02 10:12:10;;;;;;;4.22;2.28;;;15.10;59.60;;;;;;4940587;29;20063;-91
2021/10/02 10:14:55;;;;;;;3.67;2.85;;;15.20;59.10;;;;;;4943690;29;20168;-92
2021/10/02 10:20:56;;;;;;;2.83;2.55;;;15.20;58.00;;;;;;4970255;28;20042;-91
2021/10/02 10:23:46;;;;;;;5.53;2.83;;;15.30;57.90;;;;;;4964718;29;20030;-91
2021/10/02 10:26:26;;;;;;;3.55;3.05;;;15.40;57.20;;;;;;4953560;29;20023;-90
2021/10/02 10:28:55;;;;;;;2.33;2.13;;;15.40;56.70;;;;;;4957017;29;20031;-91
2021/10/02 10:31:27;;;;;;;2.83;2.05;;;15.40;57.30;;;;;;4955567;29;20115;-91
2021/10/02 10:37:05;;;;;;;3.75;2.58;;;15.40;57.20;;;;;;4962852;28;20027;-92
2021/10/02 10:39:38;;;;;;;2.30;1.98;;;15.50;57.50;;;;;;4944667;29;20034;-89
2021/10/02 10:42:13;;;;;;;4.15;2.40;;;15.50;57.70;;;;;;4944121;29;20086;-89
2021/10/02 10:44:39;;;;;;;2.42;2.17;;;15.60;57.40;;;;;;4944504;28;20114;-91
2021/10/02 10:47:42;;;;;;;;;;;;;;;;;;;;;
2021/10/02 10:50:08;;;;;;;3.20;2.63;;;15.70;57.60;;;;;;4909395;29;20459;-90
2021/10/02 10:52:40;;;;;;;1.58;1.48;;;15.80;57.50;;;;;;4944093;29;20126;-90
2021/10/02 10:55:31;;;;;;;;;;;;;;;;;;;;;
2021/10/02 10:58:02;;;;;;;3.30;2.70;;;15.90;56.50;;;;;;4946593;29;20126;-92
2021/10/02 11:00:31;;;;;;;2.65;2.20;;;15.90;56.00;;;;;;4944081;29;20035;-92
2021/10/02 11:03:48;;;;;;;2.40;2.20;;;15.90;56.20;;;;;;4944325;29;20055;-91
2021/10/02 11:06:07;;;;;;;4.68;2.20;;;15.90;56.20;;;;;;4950158;29;20035;-91
2021/10/02 11:08:52;;;;;;;3.90;3.13;;;15.90;55.50;;;;;;4929793;29;20034;-91
2021/10/02 11:11:51;;;;;;;4.28;2.33;;;15.90;56.10;;;;;;4943114;29;20019;-90
2021/10/02 11:14:19;;;;;;;3.22;2.88;;;15.90;55.60;;;;;;4942135;29;20038;-91
2021/10/02 11:16:48;;;;;;;4.30;2.85;;;15.90;55.60;;;;;;4942831;29;20023;-92
2021/10/02 11:19:32;;;;;;;4.32;3.13;;;15.80;54.90;;;;;;4941794;29;20024;-91
2021/10/02 11:22:02;;;;;;;5.40;2.88;;;15.80;55.40;;;;;;4942495;29;20023;-91
2021/10/02 11:24:36;;;;;;;4.93;3.47;;;15.70;55.20;;;;;;4942630;29;20035;-91
2021/10/02 11:27:05;;;;;;;3.55;2.60;;;15.70;55.40;;;;;;4947559;29;20038;-90
2021/10/02 11:29:34;;;;;;;3.28;2.58;;;15.70;55.80;;;;;;4953253;29;20024;-92
2021/10/02 11:32:26;;;;;;;2.17;1.95;;;15.70;56.10;;;;;;4952029;29;20034;-91
2021/10/02 11:35:24;;;;;;;2.90;2.05;;;15.80;55.90;;;;;;4943123;29;20442;-91
2021/10/02 11:38:01;;;;;;;2.97;2.38;;;15.90;56.00;;;;;;4941997;29;20029;-91
2021/10/02 11:40:35;;;;;;;3.20;2.42;;;16.00;56.40;;;;;;4941623;29;20023;-91
2021/10/02 11:43:13;;;;;;;3.95;2.50;;;16.00;55.90;;;;;;4941967;29;20027;-91
2021/10/02 11:45:41;;;;;;;5.18;2.00;;;16.00;55.60;;;;;;4941836;29;20031;-91
2021/10/02 11:48:19;;;;;;;3.05;2.30;;;16.00;55.70;;;;;;4941874;29;20058;-92
2021/10/02 11:51:09;;;;;;;2.65;2.30;;;16.10;55.70;;;;;;4941911;29;20054;-92
2021/10/02 11:53:42;;;;;;;2.67;2.13;;;16.10;55.50;;;;;;4963239;29;20031;-91
2021/10/02 11:56:29;;;;;;;3.60;2.42;;;16.10;55.40;;;;;;4959303;28;20035;-92
2021/10/02 11:58:58;;;;;;;2.50;2.30;;;16.10;55.30;;;;;;4964726;29;20038;-91
2021/10/02 12:01:33;;;;;;;3.40;2.60;;;16.10;55.30;;;;;;4960975;28;20031;-91
2021/10/02 12:04:09;;;;;;;4.10;2.55;;;16.10;55.20;;;;;;4954101;29;20102;-91
2021/10/02 12:06:38;;;;;;;4.50;2.42;;;16.00;55.30;;;;;;4952853;29;20075;-91
2021/10/02 12:09:08;;;;;;;3.42;2.22;;;16.00;55.30;;;;;;4949179;29;20458;-91
2021/10/02 12:11:45;;;;;;;2.80;2.25;;;16.10;54.90;;;;;;4942248;29;20061;-91
2021/10/02 12:14:28;;;;;;;2.47;2.22;;;16.00;53.90;;;;;;4941215;28;20318;-91
2021/10/02 12:16:55;;;;;;;2.90;2.20;;;16.00;54.10;;;;;;4958389;29;20023;-91
2021/10/02 12:19:22;;;;;;;2.72;2.30;;;16.00;54.20;;;;;;4941230;29;20522;-92
2021/10/02 12:22:09;;;;;;;3.70;2.30;;;16.00;54.10;;;;;;4940951;29;20027;-91
2021/10/02 12:24:48;;;;;;;2.15;1.80;;;16.00;54.20;;;;;;4941571;28;20121;-91
2021/10/02 12:27:16;;;;;;;2.30;2.10;;;16.00;53.90;;;;;;4941082;29;20023;-91
2021/10/02 12:29:46;;;;;;;2.50;2.30;;;16.10;53.40;;;;;;4941078;29;20035;-91
2021/10/02 12:32:18;;;;;;;3.95;2.50;;;16.10;53.50;;;;;;4941690;29;20410;-91
2021/10/02 12:34:49;;;;;;;2.25;2.05;;;16.00;53.10;;;;;;4941219;28;20461;-91
2021/10/02 12:37:18;;;;;;;4.10;2.28;;;16.10;53.30;;;;;;4941391;29;20023;-91
2021/10/02 12:39:56;;;;;;;3.58;2.63;;;16.10;53.10;;;;;;4941009;29;20020;-91
2021/10/02 12:42:44;;;;;;;2.80;2.42;;;16.20;52.80;;;;;;4940620;29;20035;-91
2021/10/02 12:45:21;;;;;;;2.90;2.35;;;16.30;52.90;;;;;;4941842;29;20370;-91
2021/10/02 12:47:51;;;;;;;2.55;2.20;;;16.40;52.70;;;;;;4943200;29;20033;-91
2021/10/02 12:50:22;;;;;;;3.15;2.53;;;16.50;52.70;;;;;;4940766;29;20030;-91
2021/10/02 12:52:51;;;;;;;2.35;2.15;;;16.60;52.30;;;;;;4940974;29;20094;-90
2021/10/02 12:55:18;;;;;;;3.28;2.70;;;16.70;52.10;;;;;;4958124;29;20030;-91
2021/10/02 12:57:46;;;;;;;3.45;2.92;;;16.70;51.00;;;;;;4940562;29;20047;-91
2021/10/02 13:00:58;;;;;;;2.75;2.42;;;16.80;51.30;;;;;;4940369;28;20027;-91
2021/10/02 13:03:39;;;;;;;3.25;2.47;;;16.90;51.00;;;;;;4936915;29;20058;-91
2021/10/02 13:06:05;;;;;;;4.65;2.40;;;17.00;51.30;;;;;;4958102;28;20027;-91
2021/10/02 13:08:31;;;;;;;3.33;2.58;;;17.20;51.00;;;;;;4943569;29;20039;-91
2021/10/02 13:11:00;;;;;;;4.68;3.10;;;17.40;50.70;;;;;;4969687;28;20019;-91
2021/10/02 13:13:26;;;;;;;3.33;2.47;;;17.70;50.20;;;;;;4956840;29;20038;-91
2021/10/02 13:15:54;;;;;;;3.28;2.60;;;18.10;50.20;;;;;;4955074;29;20019;-91
2021/10/02 13:18:24;;;;;;;3.10;2.72;;;18.60;50.00;;;;;;4953009;29;20095;-92
2021/10/02 13:21:06;;;;;;;2.55;2.35;;;19.10;49.70;;;;;;4966181;28;20031;-91
2021/10/02 13:23:36;;;;;;;3.67;2.97;;;19.70;48.20;;;;;;4949199;29;20050;-92
2021/10/02 13:26:11;;;;;;;4.00;3.05;;;20.10;48.20;;;;;;4948456;29;20032;-91
2021/10/02 13:28:53;;;;;;;3.42;2.80;;;20.50;47.60;;;;;;4950767;29;20051;-91
2021/10/02 13:31:29;;;;;;;3.20;2.63;;;20.80;47.40;;;;;;4961646;28;20018;-91
2021/10/02 13:34:05;;;;;;;3.03;2.65;;;21.10;46.80;;;;;;4963281;29;20022;-92
2021/10/02 13:36:37;;;;;;;3.05;2.45;;;21.50;46.30;;;;;;4963708;28;20011;-90
2021/10/02 13:39:08;;;;;;;2.50;2.30;;;21.80;45.80;;;;;;4962432;29;20027;-89
2021/10/02 13:41:55;;;;;;;2.47;2.17;;;22.00;46.00;;;;;;4957200;28;20019;-91
2021/10/02 13:45:11;;;;;;;3.45;2.72;;;22.30;44.80;;;;;;4951051;29;20024;-93
2021/10/02 13:53:48;;;;;;;;;;;;;;;;;;;;;
2021/10/02 13:56:58;;;;;;;;;;;;;;;;;;;;;
2021/10/02 14:00:14;;;;;;;;;;;;;;;;;;;;;
2021/10/02 14:03:09;;;;;;;;;;;;;;;;;;;;;
2021/10/02 14:05:39;;;;;;;2.20;2.00;;;24.00;43.40;;;;;;4936699;29;20055;-91
2021/10/02 14:11:45;;;;;;;;;;;;;;;;;;;;;
2021/10/02 14:35:26;;;;;;;3.63;3.30;;;24.70;40.20;;;;;;4865766;29;20038;-93
2021/10/02 14:37:51;;;;;;;4.60;3.10;;;24.60;41.00;;;;;;4862849;29;20045;-93
2021/10/02 14:40:28;;;;;;;3.72;2.92;;;24.40;40.60;;;;;;4850520;29;20045;-91
2021/10/02 14:43:02;;;;;;;3.45;3.08;;;24.30;40.60;;;;;;4849067;29;20477;-92
2021/10/02 14:45:28;;;;;;;3.38;2.97;;;24.20;40.60;;;;;;4851244;29;20042;-94
2021/10/02 14:48:15;;;;;;;4.57;3.60;;;24.00;40.40;;;;;;4849131;29;20057;-93
2021/10/02 14:50:52;;;;;;;4.13;3.22;;;23.90;40.30;;;;;;4878900;29;20087;-93
2021/10/02 14:53:41;;;;;;;3.60;3.28;;;23.60;40.00;;;;;;4916314;29;20111;-93
2021/10/02 14:56:19;;;;;;;4.57;3.80;;;23.00;40.20;;;;;;4909980;29;20111;-93
2021/10/02 14:59:05;;;;;;;;;;;;;;;;;;;;;
2021/10/02 15:01:37;;;;;;;5.47;3.75;;;21.30;41.00;;;;;;4935041;29;20062;-92
2021/10/02 15:04:06;;;;;;;3.97;3.60;;;20.60;42.00;;;;;;4918188;29;20063;-93
2021/10/02 15:06:43;;;;;;;6.47;3.88;;;20.30;42.70;;;;;;4914192;29;20060;-93
2021/10/02 15:09:16;;;;;;;4.65;3.50;;;20.00;43.40;;;;;;4925666;29;20021;-93
2021/10/02 15:12:10;;;;;;;;;;;;;;;;;;;;;
2021/10/02 15:14:47;;;;;;;4.10;3.10;;;19.00;43.40;;;;;;4940728;29;20047;-93
2021/10/02 15:17:21;;;;;;;2.72;2.53;;;18.40;44.00;;;;;;4927782;29;20029;-91
2021/10/02 15:22:53;;;;;;;2.30;2.10;;;17.40;45.20;;;;;;4940399;29;20096;-94
2021/10/02 15:25:44;;;;;;;2.78;2.40;;;16.90;45.90;;;;;;4923866;29;20040;-92
2021/10/02 15:32:10;;;;;;;3.13;1.80;;;16.00;47.40;;;;;;4922935;29;20032;-96
2021/10/02 15:34:41;;;;;;;3.55;2.22;;;15.50;48.00;;;;;;4906342;29;20032;-95
2021/10/02 15:37:14;;;;;;;2.95;2.35;;;15.20;48.50;;;;;;4905800;29;20028;-95
2021/10/02 15:40:07;;;;;;;;;;;;;;;;;;;;;
2021/10/02 15:42:43;;;;;;;2.53;2.05;;;14.60;49.50;;;;;;4922021;29;20032;-95
2021/10/02 15:45:24;;;;;;;;;;;;;;;;;;;;;
2021/10/02 15:48:15;;;;;;;7.15;4.35;;;14.10;50.50;;;;;;4921416;29;20039;-95
2021/10/02 15:51:35;;;;;;;8.43;4.03;;;13.90;51.30;;;;;;4905142;29;20036;-93
2021/10/02 15:54:41;;;;;;;;;;;;;;;;;;;;;
2021/10/02 15:57:21;;;;;;;;;;;;;;;;;;;;;
2021/10/02 15:59:57;;;;;;;22.27;12.57;;;13.30;52.20;;;;;;4922473;29;20025;-95
2021/10/02 16:02:52;;;;;;;19.05;10.55;;;13.20;52.70;;;;;;4905106;29;20128;-95
2021/10/02 16:05:24;;;;;;;15.13;9.38;;;13.00;53.10;;;;;;4904134;29;20035;-95
2021/10/02 16:08:13;;;;;;;;;;;;;;;;;;;;;
2021/10/02 16:10:43;;;;;;;8.00;5.03;;;12.80;53.80;;;;;;4934712;29;20067;-94
2021/10/02 16:13:22;;;;;;;;;;;;;;;;;;;;;
2021/10/02 16:16:08;;;;;;;;;;;;;;;;;;;;;
2021/10/02 16:18:42;;;;;;;5.05;2.30;;;12.50;54.70;;;;;;4920687;29;20419;-95
2021/10/02 16:21:10;;;;;;;4.25;2.67;;;12.30;55.00;;;;;;4903862;29;20585;-94
2021/10/02 16:23:39;;;;;;;3.28;2.40;;;12.30;55.40;;;;;;4903649;29;20090;-95
2021/10/02 16:26:11;;;;;;;3.50;2.58;;;12.20;55.80;;;;;;4902855;29;20028;-95
2021/10/02 16:28:40;;;;;;;2.50;1.75;;;12.10;56.00;;;;;;4903878;29;20035;-94
2021/10/02 16:31:16;;;;;;;2.50;2.28;;;12.00;56.40;;;;;;4903841;29;20028;-94
2021/10/02 16:33:46;;;;;;;1.85;1.70;;;11.90;56.80;;;;;;4904391;29;20055;-95
2021/10/02 16:36:26;;;;;;;2.55;2.15;;;11.80;57.00;;;;;;4904383;29;20032;-95
2021/10/02 16:39:03;;;;;;;4.43;1.88;;;11.70;57.40;;;;;;4903603;29;20028;-95
2021/10/02 16:41:29;;;;;;;2.65;1.95;;;11.70;58.00;;;;;;4903248;29;20078;-94
2021/10/02 16:44:09;;;;;;;;;;;;;;;;;;;;;
2021/10/02 16:46:38;;;;;;;2.10;1.35;;;11.50;58.30;;;;;;4942721;29;20040;-93
2021/10/02 16:49:32;;;;;;;;;;;;;;;;;;;;;
2021/10/02 16:52:13;;;;;;;;;;;;;;;;;;;;;
2021/10/02 16:54:47;;;;;;;1.88;1.50;;;11.40;59.10;;;;;;4941997;29;20024;-94
2021/10/02 16:57:13;;;;;;;2.35;1.83;;;11.40;59.80;;;;;;4925534;29;20068;-94
2021/10/02 16:59:52;;;;;;;2.70;1.80;;;11.40;59.90;;;;;;4912584;29;20431;-93
2021/10/02 17:02:21;;;;;;;4.13;1.95;;;11.30;60.10;;;;;;4914937;29;20103;-92
2021/10/02 17:04:49;;;;;;;3.42;2.03;;;11.30;60.40;;;;;;4909674;29;20046;-92
2021/10/02 17:07:25;;;;;;;;;;;;;;;;;;;;;
2021/10/02 17:09:56;;;;;;;1.88;1.27;;;11.20;61.20;;;;;;4923341;29;20074;-92
2021/10/02 17:12:32;;;;;;;;;;;;;;;;;;;;;
2021/10/02 17:15:02;;;;;;;2.30;1.90;;;11.10;62.00;;;;;;4927321;29;20083;-93
2021/10/02 17:17:37;;;;;;;2.20;1.77;;;11.00;62.00;;;;;;4915499;29;20027;-93
2021/10/02 17:20:09;;;;;;;2.65;2.20;;;11.00;63.10;;;;;;4911462;29;20028;-93
2021/10/02 17:22:40;;;;;;;3.15;2.10;;;11.00;62.80;;;;;;4907862;29;20036;-93
2021/10/02 17:25:15;;;;;;;2.42;2.22;;;11.00;63.30;;;;;;4906760;29;20036;-92
2021/10/02 17:27:43;;;;;;;2.17;1.40;;;10.90;63.70;;;;;;4902825;29;20464;-93
2021/10/02 17:30:13;;;;;;;2.08;1.88;;;10.90;63.90;;;;;;4902901;29;20168;-93
2021/10/02 17:32:45;;;;;;;1.67;1.40;;;10.80;64.10;;;;;;4903075;29;20494;-94
2021/10/02 17:35:33;;;;;;;2.50;1.73;;;10.80;64.40;;;;;;4903357;29;20092;-94
2021/10/02 17:38:03;;;;;;;6.30;2.28;;;10.70;64.80;;;;;;4918411;29;20036;-93
2021/10/02 17:40:44;;;;;;;4.75;2.47;;;10.80;65.30;;;;;;4902337;29;20024;-93
2021/10/02 17:43:21;;;;;;;3.42;1.75;;;10.80;65.90;;;;;;4902478;29;20400;-92
2021/10/02 17:45:57;;;;;;;2.83;1.60;;;10.70;66.00;;;;;;4902850;29;20036;-93
2021/10/02 17:48:49;;;;;;;2.42;2.00;;;10.70;66.30;;;;;;4902855;29;20428;-93
2021/10/02 17:51:20;;;;;;;4.50;2.40;;;10.70;67.10;;;;;;4912252;29;20032;-92
2021/10/02 17:54:01;;;;;;;3.47;2.20;;;10.70;67.40;;;;;;4919544;29;20108;-93
2021/10/02 17:56:36;;;;;;;1.58;1.30;;;10.70;68.20;;;;;;4922883;29;20095;-93
2021/10/02 17:59:34;;;;;;;3.53;2.10;;;10.60;68.20;;;;;;4923586;29;20008;-92
2021/10/02 18:02:02;;;;;;;3.67;2.50;;;10.60;69.20;;;;;;4921826;29;20064;-93
2021/10/02 18:04:40;;;;;;;7.13;3.08;;;10.60;69.50;;;;;;4906513;29;20039;-94
2021/10/02 18:07:30;;;;;;;;;;;;;;;;;;;;;
2021/10/02 18:09:58;;;;;;;4.57;2.47;;;10.60;70.70;;;;;;4919439;29;20032;-95
2021/10/02 18:12:49;;;;;;;4.55;2.50;;;10.60;71.10;;;;;;4901631;29;20114;-95
2021/10/02 18:15:15;;;;;;;5.85;3.92;;;10.60;71.40;;;;;;4902911;29;20032;-95
2021/10/02 18:17:44;;;;;;;4.85;2.95;;;10.60;72.20;;;;;;4912707;29;20032;-95
2021/10/02 18:20:13;;;;;;;5.55;3.17;;;10.60;72.40;;;;;;4911442;29;20036;-94
2021/10/02 18:22:50;;;;;;;5.95;4.22;;;10.60;73.10;;;;;;4923146;29;20051;-95
2021/10/02 18:25:36;;;;;;;4.93;3.17;;;10.50;73.70;;;;;;4925320;29;20068;-92
2021/10/02 18:28:33;;;;;;;4.57;3.17;;;10.50;73.60;;;;;;4925103;29;20016;-96
2021/10/02 18:31:22;;;;;;;;;;;;;;;;;;;;;
2021/10/02 18:33:52;;;;;;;8.95;4.80;;;10.60;74.60;;;;;;4940976;29;20028;-95
2021/10/02 18:36:29;;;;;;;5.47;3.63;;;10.60;74.80;;;;;;4915705;29;20033;-95
2021/10/02 18:39:06;;;;;;;9.15;4.00;;;10.50;74.80;;;;;;4911839;29;20090;-92
2021/10/02 18:41:35;;;;;;;5.15;3.45;;;10.50;74.90;;;;;;4906715;29;20032;-93
2021/10/02 18:44:13;;;;;;;;;;;;;;;;;;;;;
2021/10/02 18:46:47;;;;;;;4.80;3.35;;;10.40;75.20;;;;;;4922787;29;20046;-94
2021/10/02 18:49:24;;;;;;;4.28;3.33;;;10.40;75.60;;;;;;4905446;29;20036;-93
2021/10/02 18:52:08;;;;;;;5.95;3.70;;;10.30;76.40;;;;;;4906124;29;20036;-94
2021/10/02 18:54:47;;;;;;;;;;;;;;;;;;;;;
2021/10/02 18:57:20;;;;;;;6.43;4.15;;;10.20;78.50;;;;;;4922181;29;20032;-94
2021/10/02 18:59:48;;;;;;;5.90;3.55;;;10.20;78.40;;;;;;4905272;29;20052;-93
2021/10/02 19:02:40;;;;;;;5.60;3.42;;;10.20;78.00;;;;;;4905219;29;20028;-93
2021/10/02 19:05:15;;;;;;;4.85;3.50;;;10.20;79.50;;;;;;4904876;29;20395;-94
2021/10/02 19:07:48;;;;;;;6.53;4.15;;;10.20;78.30;;;;;;4905261;29;20383;-93
2021/10/02 19:10:26;;;;;;;6.38;3.15;;;10.20;78.40;;;;;;4905373;29;20028;-94
2021/10/02 19:12:59;;;;;;;5.38;3.55;;;10.10;79.10;;;;;;4905063;29;20036;-93
2021/10/02 19:15:31;;;;;;;5.95;3.53;;;10.10;79.00;;;;;;4905314;29;20060;-94
2021/10/02 19:18:00;;;;;;;5.93;2.85;;;10.10;80.60;;;;;;4904915;29;20024;-93
2021/10/02 19:20:26;;;;;;;5.38;3.05;;;10.10;79.90;;;;;;4905248;29;20153;-93
2021/10/02 19:22:59;;;;;;;6.90;3.92;;;10.10;79.70;;;;;;4904543;29;20538;-93
2021/10/02 19:25:54;;;;;;;4.28;2.80;;;10.00;79.90;;;;;;4904507;29;20056;-93
2021/10/02 19:28:38;;;;;;;;;;;;;;;;;;;;;
2021/10/02 19:31:07;;;;;;;4.75;3.72;;;10.00;81.50;;;;;;4923429;29;20111;-93
2021/10/02 19:33:45;;;;;;;6.85;3.42;;;10.00;81.60;;;;;;4907386;29;20043;-93
2021/10/02 19:36:49;;;;;;;19.15;5.18;;;10.00;81.10;;;;;;4908582;29;20059;-93
2021/10/02 19:39:47;;;;;;;4.00;2.53;;;9.90;81.10;;;;;;4857932;29;20039;-93
2021/10/02 19:42:26;;;;;;;;;;;;;;;;;;;;;
2021/10/02 19:45:34;;;;;;;;;;;;;;;;;;;;;
2021/10/02 19:48:43;;;;;;;5.22;2.75;;;9.90;82.10;;;;;;4921589;29;20038;-93
2021/10/02 19:51:12;;;;;;;5.03;3.10;;;9.80;81.80;;;;;;4858223;29;20044;-94
2021/10/02 19:53:57;;;;;;;4.53;2.63;;;9.80;81.40;;;;;;4926622;29;20032;-95
2021/10/02 19:56:48;;;;;;;5.32;2.95;;;9.70;81.20;;;;;;4927572;29;20091;-93
2021/10/02 19:59:17;;;;;;;7.00;3.10;;;9.70;81.70;;;;;;4927094;29;20029;-93
2021/10/02 20:02:22;;;;;;;;;;;;;;;;;;;;;
2021/10/02 20:05:08;;;;;;;3.67;2.42;;;9.60;82.60;;;;;;4943702;29;20035;-94
2021/10/02 20:07:40;;;;;;;3.15;2.22;;;9.60;82.40;;;;;;4927216;29;20028;-93
2021/10/02 20:10:10;;;;;;;7.57;3.20;;;9.50;82.80;;;;;;4924503;29;20154;-93
2021/10/02 20:12:43;;;;;;;7.10;3.10;;;9.50;83.20;;;;;;4921798;29;20036;-91
2021/10/02 20:15:12;;;;;;;5.85;3.53;;;9.50;83.50;;;;;;4921612;29;20032;-93
2021/10/02 20:17:48;;;;;;;;;;;;;;;;;;;;;
2021/10/02 20:20:22;;;;;;;6.68;3.67;;;9.50;83.80;;;;;;4926627;29;20152;-93
2021/10/02 20:22:53;;;;;;;;;;;9.50;83.80;;;;;;4904911;29;20471;-94
2021/10/02 20:25:24;;;;;;;8.80;4.00;;;9.50;86.70;;;;;;4904042;29;20370;-94
2021/10/02 20:28:28;;;;;;;4.68;3.00;;;9.50;84.60;;;;;;4904320;29;20035;-93
2021/10/02 20:33:45;;;;;;;6.38;2.60;;;9.50;84.80;;;;;;4908017;29;20131;-93
2021/10/02 20:36:28;;;;;;;6.28;3.67;;;9.50;84.90;;;;;;4904139;29;20460;-94
2021/10/02 20:38:57;;;;;;;5.90;2.72;;;9.50;85.10;;;;;;4905554;29;20032;-93
2021/10/02 20:41:29;;;;;;;6.97;3.47;;;9.40;85.00;;;;;;4920113;29;20028;-93
2021/10/02 20:43:57;;;;;;;12.93;3.42;;;9.40;85.00;;;;;;4922890;29;20036;-92
2021/10/02 20:46:43;;;;;;;;;;;;;;;;;;;;;
2021/10/02 20:49:24;;;;;;;;;;;;;;;;;;;;;
2021/10/02 20:51:56;;;;;;;7.80;3.63;;;9.40;86.10;;;;;;4924468;29;20547;-93
2021/10/02 20:54:30;;;;;;;7.70;5.07;;;9.40;86.00;;;;;;4909566;29;20107;-94
2021/10/02 20:57:09;;;;;;;;;;;;;;;;;;;;;
2021/10/02 20:59:42;;;;;;;5.88;2.80;;;9.30;86.20;;;;;;4921388;29;20135;-93
2021/10/02 21:02:18;;;;;;;7.38;3.42;;;9.20;86.40;;;;;;4903430;29;20383;-93
2021/10/02 21:04:56;;;;;;;8.43;3.88;;;9.30;86.80;;;;;;4903520;29;20036;-93
2021/10/02 21:07:30;;;;;;;7.63;3.17;;;9.30;87.20;;;;;;4903318;29;20075;-93